Time;durP1;ratioP1;P1;durP2;ratioP2;P2;SDS_P1;SDS_P2;PMS_P1;PMS_P2;Temp;Humidity;BMP_temperature;BMP_pressure;BME280_temperature;BME280_humidity;BME280_pressure;Samples;Min_cycle;Max_cycle;Signal;HPM_P1;HPM_P2
2021/05/08 00:01:59;;;;;;;16.23;5.05;;;;;;;;;;143740;700;45911;-58
2021/05/08 00:04:26;;;;;;;10.93;6.00;;;;;;;;;;143743;583;45023;-56
2021/05/08 00:06:53;;;;;;;14.10;5.35;;;;;;;;;;143739;575;46018;-57
2021/05/08 00:09:20;;;;;;;10.98;5.40;;;;;;;;;;143739;580;46022;-57
2021/05/08 00:11:47;;;;;;;9.88;4.85;;;;;;;;;;143737;579;46013;-58
2021/05/08 00:14:14;;;;;;;12.85;5.43;;;;;;;;;;143743;607;45022;-58
2021/05/08 00:16:41;;;;;;;13.40;5.80;;;;;;;;;;143741;600;46020;-58
2021/05/08 00:19:08;;;;;;;12.05;6.22;;;;;;;;;;143740;590;46023;-58
2021/05/08 00:21:35;;;;;;;13.25;6.60;;;;;;;;;;143742;614;45018;-58
2021/05/08 00:24:03;;;;;;;9.52;5.95;;;;;;;;;;143743;598;45022;-57
2021/05/08 00:26:31;;;;;;;18.33;7.12;;;;;;;;;;143739;592;46021;-57
2021/05/08 00:28:58;;;;;;;19.73;6.95;;;;;;;;;;143739;583;46022;-57
2021/05/08 00:31:25;;;;;;;12.23;6.50;;;;;;;;;;143743;591;45018;-57
2021/05/08 00:33:52;;;;;;;14.07;6.22;;;;;;;;;;143744;565;45023;-56
2021/05/08 00:36:19;;;;;;;9.10;5.60;;;;;;;;;;143740;619;46018;-57
2021/05/08 00:38:46;;;;;;;13.80;6.15;;;;;;;;;;143741;570;46022;-58
2021/05/08 00:41:13;;;;;;;12.73;6.10;;;;;;;;;;143743;609;45019;-58
2021/05/08 00:43:40;;;;;;;12.55;5.62;;;;;;;;;;143742;641;46012;-56
2021/05/08 00:46:07;;;;;;;14.50;5.05;;;;;;;;;;143738;565;46020;-57
2021/05/08 00:48:35;;;;;;;10.05;5.03;;;;;;;;;;143739;604;46023;-56
2021/05/08 00:51:01;;;;;;;15.13;5.78;;;;;;;;;;143742;580;45020;-57
2021/05/08 00:53:28;;;;;;;11.52;5.35;;;;;;;;;;143744;581;45022;-58
2021/05/08 00:55:55;;;;;;;14.05;6.05;;;;;;;;;;143740;664;46020;-57
2021/05/08 00:58:22;;;;;;;12.40;5.78;;;;;;;;;;143739;570;46022;-57
2021/05/08 01:00:53;;;;;;;11.35;5.87;;;;;;;;;;143743;569;45018;-56
2021/05/08 01:03:20;;;;;;;9.27;5.15;;;;;;;;;;143742;592;45023;-57
2021/05/08 01:05:47;;;;;;;9.88;5.20;;;;;;;;;;143740;641;46018;-58
2021/05/08 01:08:14;;;;;;;11.70;5.28;;;;;;;;;;143739;582;46022;-57
2021/05/08 01:10:42;;;;;;;12.98;5.07;;;;;;;;;;143742;566;45019;-57
2021/05/08 01:13:09;;;;;;;18.42;6.37;;;;;;;;;;143742;572;45026;-56
2021/05/08 01:15:36;;;;;;;9.63;4.72;;;;;;;;;;143741;585;46020;-57
2021/05/08 01:18:03;;;;;;;11.57;5.10;;;;;;;;;;143741;687;46023;-57
2021/05/08 01:20:30;;;;;;;9.30;5.00;;;;;;;;;;143743;630;45019;-57
2021/05/08 01:22:57;;;;;;;11.38;5.45;;;;;;;;;;143743;575;46022;-56
2021/05/08 01:25:25;;;;;;;12.20;5.85;;;;;;;;;;143740;632;46019;-57
2021/05/08 01:27:54;;;;;;;11.70;7.12;;;;;;;;;;143739;606;46022;-56
2021/05/08 01:30:24;;;;;;;19.87;7.00;;;;;;;;;;143743;566;45018;-56
2021/05/08 01:32:52;;;;;;;15.02;6.68;;;;;;;;;;143745;601;45023;-58
2021/05/08 01:35:19;;;;;;;13.38;6.93;;;;;;;;;;143740;576;46018;-58
2021/05/08 01:37:47;;;;;;;14.70;7.37;;;;;;;;;;143740;566;46022;-57
2021/05/08 01:40:16;;;;;;;15.88;7.47;;;;;;;;;;143743;590;45019;-55
2021/05/08 01:42:51;;;;;;;16.67;6.90;;;;;;;;;;143740;595;48010;-56
2021/05/08 01:45:20;;;;;;;11.85;6.28;;;;;;;;;;143740;599;46018;-57
2021/05/08 01:47:48;;;;;;;12.00;5.80;;;;;;;;;;143739;570;46023;-56
2021/05/08 01:50:19;;;;;;;19.50;8.68;;;;;;;;;;143741;592;45033;-56
2021/05/08 01:52:46;;;;;;;12.52;7.00;;;;;;;;;;143742;569;46022;-57
2021/05/08 01:55:18;;;;;;;21.27;7.80;;;;;;;;;;143740;590;46019;-58
2021/05/08 01:57:51;;;;;;;17.33;7.50;;;;;;;;;;143738;604;46023;-57
2021/05/08 02:00:21;;;;;;;14.68;7.30;;;;;;;;;;143739;612;45020;-58
2021/05/08 02:02:49;;;;;;;13.80;7.15;;;;;;;;;;143742;606;45021;-57
2021/05/08 02:05:17;;;;;;;15.65;6.60;;;;;;;;;;143740;646;46018;-58
2021/05/08 02:07:44;;;;;;;14.87;6.93;;;;;;;;;;143742;579;46022;-58
2021/05/08 02:10:12;;;;;;;15.32;6.68;;;;;;;;;;143743;575;45019;-57
2021/05/08 02:12:40;;;;;;;20.45;7.15;;;;;;;;;;143743;582;46022;-56
2021/05/08 02:15:12;;;;;;;15.48;6.97;;;;;;;;;;143741;576;46020;-57
2021/05/08 02:17:40;;;;;;;14.98;8.30;;;;;;;;;;143740;583;46023;-58
2021/05/08 02:20:16;;;;;;;22.80;9.55;;;;;;;;;;143742;593;45019;-58
2021/05/08 02:22:44;;;;;;;15.93;7.45;;;;;;;;;;143737;597;47010;-57
2021/05/08 02:25:12;;;;;;;20.95;8.60;;;;;;;;;;143740;564;46020;-56
2021/05/08 02:27:40;;;;;;;19.35;8.05;;;;;;;;;;143739;566;46921;-58
2021/05/08 02:30:28;;;;;;;17.30;8.20;;;;;;;;;;143742;577;45018;-56
2021/05/08 02:32:56;;;;;;;14.23;7.95;;;;;;;;;;143742;578;45023;-56
2021/05/08 02:35:25;;;;;;;16.52;9.48;;;;;;;;;;143740;605;46037;-58
2021/05/08 02:37:53;;;;;;;17.87;8.82;;;;;;;;;;143741;566;46020;-57
2021/05/08 02:40:23;;;;;;;18.12;8.63;;;;;;;;;;143742;604;45021;-58
2021/05/08 02:42:50;;;;;;;18.52;10.07;;;;;;;;;;143744;636;45021;-56
2021/05/08 02:45:17;;;;;;;18.85;9.10;;;;;;;;;;143740;570;46020;-58
2021/05/08 02:47:46;;;;;;;31.15;13.50;;;;;;;;;;143739;607;46021;-56
2021/05/08 02:50:15;;;;;;;27.02;12.48;;;;;;;;;;143741;596;45021;-59
2021/05/08 02:52:42;;;;;;;23.77;12.82;;;;;;;;;;143741;592;45020;-58
2021/05/08 02:55:11;;;;;;;19.83;11.05;;;;;;;;;;143739;614;46022;-56
2021/05/08 02:57:38;;;;;;;24.60;12.32;;;;;;;;;;143739;589;46020;-57
2021/05/08 03:00:09;;;;;;;31.00;12.32;;;;;;;;;;143743;566;45020;-57
2021/05/08 03:02:36;;;;;;;24.45;11.43;;;;;;;;;;143744;731;45021;-58
2021/05/08 03:05:04;;;;;;;25.20;11.65;;;;;;;;;;143740;589;46023;-57
2021/05/08 03:07:31;;;;;;;27.73;12.60;;;;;;;;;;143738;564;46020;-55
2021/05/08 03:09:59;;;;;;;24.45;12.18;;;;;;;;;;143741;578;45021;-57
2021/05/08 03:12:26;;;;;;;27.00;11.85;;;;;;;;;;143743;569;45037;-58
2021/05/08 03:14:53;;;;;;;32.00;10.57;;;;;;;;;;143735;565;46020;-57
2021/05/08 03:17:20;;;;;;;23.67;9.27;;;;;;;;;;143739;569;46021;-58
2021/05/08 03:19:47;;;;;;;17.15;9.15;;;;;;;;;;143743;593;45020;-58
2021/05/08 03:22:14;;;;;;;20.08;9.60;;;;;;;;;;143745;563;45020;-58
2021/05/08 03:24:41;;;;;;;22.52;10.18;;;;;;;;;;143740;584;46021;-56
2021/05/08 03:27:08;;;;;;;20.02;10.10;;;;;;;;;;143741;597;46020;-56
2021/05/08 03:29:35;;;;;;;28.30;10.80;;;;;;;;;;143742;635;45020;-56
2021/05/08 03:32:02;;;;;;;21.30;10.50;;;;;;;;;;143740;594;46013;-56
2021/05/08 03:34:29;;;;;;;17.60;7.80;;;;;;;;;;143741;639;46021;-57
2021/05/08 03:36:56;;;;;;;18.58;8.68;;;;;;;;;;143740;571;46020;-57
2021/05/08 03:39:23;;;;;;;19.55;9.23;;;;;;;;;;143743;571;45021;-58
2021/05/08 03:41:50;;;;;;;16.95;8.10;;;;;;;;;;143744;605;45021;-57
2021/05/08 03:44:17;;;;;;;16.92;7.95;;;;;;;;;;143741;612;46022;-55
2021/05/08 03:46:44;;;;;;;19.55;8.25;;;;;;;;;;143741;566;46021;-56
2021/05/08 03:49:11;;;;;;;16.25;8.18;;;;;;;;;;143743;571;45020;-58
2021/05/08 03:51:38;;;;;;;12.85;8.65;;;;;;;;;;143743;609;45033;-55
2021/05/08 03:54:06;;;;;;;20.83;8.35;;;;;;;;;;143740;584;46022;-56
2021/05/08 03:56:35;;;;;;;25.85;9.82;;;;;;;;;;143740;598;46020;-57
2021/05/08 03:59:02;;;;;;;24.40;9.23;;;;;;;;;;143742;573;45020;-58
2021/05/08 04:01:29;;;;;;;24.02;9.50;;;;;;;;;;143745;564;46020;-57
2021/05/08 04:03:56;;;;;;;20.85;8.43;;;;;;;;;;143741;585;46023;-57
2021/05/08 04:06:23;;;;;;;21.20;9.35;;;;;;;;;;143741;572;46020;-56
2021/05/08 04:08:50;;;;;;;24.17;8.23;;;;;;;;;;143742;618;45021;-57
2021/05/08 04:11:17;;;;;;;22.73;9.80;;;;;;;;;;143744;566;45021;-57
2021/05/08 04:13:45;;;;;;;22.40;8.57;;;;;;;;;;143742;564;46020;-58
2021/05/08 04:16:11;;;;;;;25.83;9.68;;;;;;;;;;143741;599;46021;-57
2021/05/08 04:18:38;;;;;;;18.67;8.90;;;;;;;;;;143743;581;45021;-56
2021/05/08 04:21:05;;;;;;;21.83;8.02;;;;;;;;;;143743;569;45020;-56
2021/05/08 04:23:33;;;;;;;17.15;8.75;;;;;;;;;;143741;644;46021;-58
2021/05/08 04:25:59;;;;;;;31.83;8.73;;;;;;;;;;143739;586;46919;-56
2021/05/08 04:28:26;;;;;;;20.77;8.88;;;;;;;;;;143743;564;45028;-58
2021/05/08 04:30:53;;;;;;;22.13;9.75;;;;;;;;;;143744;593;45021;-56
2021/05/08 04:33:21;;;;;;;28.67;8.77;;;;;;;;;;143741;577;46023;-56
2021/05/08 04:35:48;;;;;;;27.13;8.52;;;;;;;;;;143737;590;47020;-56
2021/05/08 04:38:15;;;;;;;21.12;8.32;;;;;;;;;;143742;583;45021;-56
2021/05/08 04:40:42;;;;;;;15.82;7.47;;;;;;;;;;143743;573;45021;-55
2021/05/08 04:43:09;;;;;;;20.58;8.60;;;;;;;;;;143740;564;46020;-56
2021/05/08 04:45:36;;;;;;;15.57;7.93;;;;;;;;;;143742;580;46021;-55
2021/05/08 04:48:04;;;;;;;16.05;7.47;;;;;;;;;;143742;569;45021;-56
2021/05/08 04:50:31;;;;;;;16.60;7.85;;;;;;;;;;143744;574;45020;-58
2021/05/08 04:52:58;;;;;;;18.77;7.80;;;;;;;;;;143739;604;46022;-58
2021/05/08 04:55:25;;;;;;;14.55;6.85;;;;;;;;;;143738;574;46021;-55
2021/05/08 04:57:52;;;;;;;17.02;8.77;;;;;;;;;;143743;586;45020;-55
2021/05/08 05:00:20;;;;;;;16.25;7.60;;;;;;;;;;143743;614;45020;-55
2021/05/08 05:02:47;;;;;;;14.23;6.70;;;;;;;;;;143739;577;46021;-56
2021/05/08 05:05:15;;;;;;;18.45;6.93;;;;;;;;;;143740;564;46020;-57
2021/05/08 05:07:45;;;;;;;17.90;7.00;;;;;;;;;;143742;613;45020;-57
2021/05/08 05:10:13;;;;;;;19.77;7.47;;;;;;;;;;143744;584;45021;-55
2021/05/08 05:12:40;;;;;;;17.77;6.87;;;;;;;;;;143741;608;46020;-54
2021/05/08 05:15:08;;;;;;;20.65;6.90;;;;;;;;;;143740;578;46020;-56
2021/05/08 05:17:35;;;;;;;18.20;6.55;;;;;;;;;;143744;605;45021;-56
2021/05/08 05:20:04;;;;;;;14.10;6.80;;;;;;;;;;143743;569;45020;-57
2021/05/08 05:22:31;;;;;;;12.48;6.30;;;;;;;;;;143741;564;46020;-54
2021/05/08 05:24:58;;;;;;;18.85;8.73;;;;;;;;;;143739;564;46021;-57
2021/05/08 05:27:25;;;;;;;17.40;7.20;;;;;;;;;;143743;606;45020;-56
2021/05/08 05:29:52;;;;;;;14.07;6.85;;;;;;;;;;143743;585;45020;-55
2021/05/08 05:32:19;;;;;;;12.37;6.57;;;;;;;;;;143740;566;46037;-57
2021/05/08 05:34:47;;;;;;;19.60;6.37;;;;;;;;;;143740;594;46022;-56
2021/05/08 05:37:14;;;;;;;9.93;5.18;;;;;;;;;;143743;588;45018;-58
2021/05/08 05:39:41;;;;;;;15.52;6.18;;;;;;;;;;143746;579;45023;-55
2021/05/08 05:42:08;;;;;;;12.25;5.20;;;;;;;;;;143743;701;46020;-57
2021/05/08 05:44:35;;;;;;;18.40;5.18;;;;;;;;;;143740;575;46022;-58
2021/05/08 05:47:02;;;;;;;16.02;5.65;;;;;;;;;;143743;581;45019;-56
2021/05/08 05:49:28;;;;;;;11.30;5.72;;;;;;;;;;143744;626;46010;-55
2021/05/08 05:51:55;;;;;;;8.70;5.12;;;;;;;;;;143743;610;46018;-57
2021/05/08 05:54:22;;;;;;;13.90;6.15;;;;;;;;;;143740;639;46023;-55
2021/05/08 05:56:50;;;;;;;16.55;6.90;;;;;;;;;;143742;583;45018;-55
2021/05/08 05:59:17;;;;;;;13.80;5.82;;;;;;;;;;143744;627;45022;-58
2021/05/08 06:01:43;;;;;;;15.15;6.47;;;;;;;;;;143742;574;46019;-57
2021/05/08 06:04:10;;;;;;;16.67;5.55;;;;;;;;;;143739;564;46038;-57
2021/05/08 06:06:38;;;;;;;13.27;6.10;;;;;;;;;;143741;600;46012;-56
2021/05/08 06:09:05;;;;;;;15.02;7.03;;;;;;;;;;143745;579;45021;-55
2021/05/08 06:11:32;;;;;;;12.68;6.20;;;;;;;;;;143742;565;46022;-56
2021/05/08 06:13:59;;;;;;;11.43;5.20;;;;;;;;;;143741;569;46020;-55
2021/05/08 06:16:26;;;;;;;14.57;5.37;;;;;;;;;;143741;611;45913;-55
2021/05/08 06:18:53;;;;;;;12.60;5.07;;;;;;;;;;143743;610;45020;-56
2021/05/08 06:21:20;;;;;;;10.73;5.37;;;;;;;;;;143741;569;46020;-55
2021/05/08 06:23:47;;;;;;;10.90;5.30;;;;;;;;;;143741;615;46919;-57
2021/05/08 06:26:14;;;;;;;11.18;4.62;;;;;;;;;;143738;597;46012;-55
2021/05/08 06:28:41;;;;;;;10.60;5.55;;;;;;;;;;143743;569;46010;-58
2021/05/08 06:31:08;;;;;;;13.85;4.60;;;;;;;;;;143740;583;46023;-58
2021/05/08 06:33:35;;;;;;;9.60;4.82;;;;;;;;;;143740;633;46020;-58
2021/05/08 06:36:01;;;;;;;13.90;4.95;;;;;;;;;;143743;564;45020;-55
2021/05/08 06:38:29;;;;;;;11.32;4.85;;;;;;;;;;143743;595;46023;-55
2021/05/08 06:40:56;;;;;;;12.07;4.53;;;;;;;;;;143742;577;46020;-58
2021/05/08 06:43:23;;;;;;;14.35;4.70;;;;;;;;;;143739;590;46020;-58
2021/05/08 06:45:49;;;;;;;11.82;4.80;;;;;;;;;;143743;566;45021;-57
2021/05/08 06:48:17;;;;;;;9.38;4.57;;;;;;;;;;143744;575;46012;-58
2021/05/08 06:50:50;;;;;;;9.27;4.78;;;;;;;;;;143742;574;46020;-59
2021/05/08 06:53:17;;;;;;;15.95;5.37;;;;;;;;;;143740;593;46021;-59
2021/05/08 06:55:44;;;;;;;9.05;4.55;;;;;;;;;;143743;579;45020;-59
2021/05/08 06:58:11;;;;;;;15.80;4.62;;;;;;;;;;143745;569;46020;-59
2021/05/08 07:00:38;;;;;;;10.60;4.87;;;;;;;;;;143742;564;46021;-59
2021/05/08 07:03:05;;;;;;;15.40;4.97;;;;;;;;;;143742;589;46020;-58
2021/05/08 07:05:32;;;;;;;10.27;4.85;;;;;;;;;;143744;587;45020;-55
2021/05/08 07:08:03;;;;;;;12.18;5.20;;;;;;;;;;143744;585;46012;-59
2021/05/08 07:10:30;;;;;;;11.18;4.32;;;;;;;;;;143742;594;46020;-58
2021/05/08 07:12:57;;;;;;;8.43;4.45;;;;;;;;;;143741;601;46040;-57
2021/05/08 07:15:24;;;;;;;15.23;5.18;;;;;;;;;;143745;578;45019;-57
2021/05/08 07:18:02;;;;;;;13.05;5.12;;;;;;;;;;143746;606;45023;-60
2021/05/08 07:20:30;;;;;;;11.73;4.50;;;;;;;;;;143741;587;46020;-58
2021/05/08 07:22:57;;;;;;;11.63;4.25;;;;;;;;;;143743;590;46023;-59
2021/05/08 07:25:24;;;;;;;7.25;3.97;;;;;;;;;;143740;575;46019;-59
2021/05/08 07:27:51;;;;;;;9.07;4.28;;;;;;;;;;143743;571;45022;-59
2021/05/08 07:30:19;;;;;;;7.95;4.47;;;;;;;;;;143743;599;46020;-59
2021/05/08 07:32:46;;;;;;;11.15;4.57;;;;;;;;;;143740;601;46022;-58
2021/05/08 07:35:14;;;;;;;11.98;4.45;;;;;;;;;;143744;569;45018;-59
2021/05/08 07:37:41;;;;;;;9.02;4.37;;;;;;;;;;143746;581;45023;-59
2021/05/08 07:40:08;;;;;;;10.35;4.43;;;;;;;;;;143743;564;46021;-60
2021/05/08 07:42:35;;;;;;;8.23;4.55;;;;;;;;;;143740;607;46022;-57
2021/05/08 07:45:02;;;;;;;10.93;4.60;;;;;;;;;;143744;569;45019;-58
2021/05/08 07:47:29;;;;;;;12.43;4.68;;;;;;;;;;143745;594;45023;-58
2021/05/08 07:49:56;;;;;;;15.15;4.65;;;;;;;;;;143742;576;46040;-59
2021/05/08 07:52:23;;;;;;;11.48;4.43;;;;;;;;;;143741;591;46021;-56
2021/05/08 07:54:50;;;;;;;13.65;4.32;;;;;;;;;;143742;583;45913;-58
2021/05/08 07:57:17;;;;;;;6.45;3.75;;;;;;;;;;143746;593;45020;-56
2021/05/08 07:59:44;;;;;;;10.02;3.97;;;;;;;;;;143741;571;46022;-55
2021/05/08 08:02:11;;;;;;;14.20;4.32;;;;;;;;;;143741;569;46020;-54
2021/05/08 08:04:38;;;;;;;24.17;4.85;;;;;;;;;;143744;569;45020;-56
2021/05/08 08:07:05;;;;;;;11.95;4.47;;;;;;;;;;143744;592;45021;-55
2021/05/08 08:09:32;;;;;;;11.68;4.50;;;;;;;;;;143743;596;46023;-56
2021/05/08 08:11:59;;;;;;;15.98;4.72;;;;;;;;;;143743;566;46020;-57
2021/05/08 08:14:26;;;;;;;18.73;5.65;;;;;;;;;;143743;581;45021;-57
2021/05/08 08:16:53;;;;;;;15.18;5.57;;;;;;;;;;143743;570;45021;-55
2021/05/08 08:19:20;;;;;;;13.55;5.03;;;;;;;;;;143742;605;46020;-56
2021/05/08 08:21:47;;;;;;;11.38;4.50;;;;;;;;;;143742;567;46020;-57
2021/05/08 08:24:14;;;;;;;14.90;4.62;;;;;;;;;;143743;717;45913;-56
2021/05/08 08:26:41;;;;;;;12.90;4.40;;;;;;;;;;143744;601;45071;-56
2021/05/08 08:29:08;;;;;;;9.90;4.03;;;;;;;;;;143742;627;46020;-57
2021/05/08 08:31:35;;;;;;;11.68;4.68;;;;;;;;;;143741;572;46023;-54
2021/05/08 08:34:02;;;;;;;15.05;4.70;;;;;;;;;;143744;578;45031;-55
2021/05/08 08:36:29;;;;;;;8.15;4.00;;;;;;;;;;143745;614;45022;-54
2021/05/08 08:38:56;;;;;;;19.17;5.18;;;;;;;;;;143742;615;46018;-54
2021/05/08 08:41:24;;;;;;;17.75;4.37;;;;;;;;;;143740;589;46022;-54
2021/05/08 08:43:51;;;;;;;16.08;4.78;;;;;;;;;;143745;564;45019;-56
2021/05/08 08:46:20;;;;;;;9.73;4.53;;;;;;;;;;143746;569;45023;-55
2021/05/08 08:48:47;;;;;;;9.50;4.22;;;;;;;;;;143742;598;46020;-60
2021/05/08 08:51:17;;;;;;;6.55;3.75;;;;;;;;;;143741;605;46022;-60
2021/05/08 08:53:45;;;;;;;11.35;4.40;;;;;;;;;;143745;588;45019;-60
2021/05/08 08:56:15;;;;;;;8.50;4.35;;;;;;;;;;143745;579;45022;-61
2021/05/08 08:58:44;;;;;;;12.50;4.12;;;;;;;;;;143744;617;45020;-59
2021/05/08 09:01:11;;;;;;;10.23;4.45;;;;;;;;;;143741;578;46023;-60
2021/05/08 09:03:38;;;;;;;14.73;4.10;;;;;;;;;;143744;583;45018;-60
2021/05/08 09:06:05;;;;;;;13.40;3.80;;;;;;;;;;143746;573;46022;-60
2021/05/08 09:08:33;;;;;;;11.57;4.07;;;;;;;;;;143740;605;47018;-61
2021/05/08 09:11:19;;;;;;;7.53;3.83;;;;;;;;;;143743;570;45921;-60
2021/05/08 09:13:47;;;;;;;9.02;3.92;;;;;;;;;;143743;587;46018;-60
2021/05/08 09:16:14;;;;;;;18.35;4.35;;;;;;;;;;143744;637;45023;-58
2021/05/08 09:18:41;;;;;;;11.48;3.75;;;;;;;;;;143744;613;45912;-61
2021/05/08 09:21:09;;;;;;;17.00;3.92;;;;;;;;;;143743;574;46022;-61
2021/05/08 09:23:41;;;;;;;10.85;4.35;;;;;;;;;;143745;576;45019;-57
2021/05/08 09:26:14;;;;;;;19.95;4.30;;;;;;;;;;143742;579;46038;-60
2021/05/08 09:29:01;;;;;;;9.75;3.75;;;;;;;;;;143743;603;46022;-60
2021/05/08 09:31:28;;;;;;;9.57;3.83;;;;;;;;;;143739;569;46919;-61
2021/05/08 09:33:58;;;;;;;11.85;3.90;;;;;;;;;;143744;564;45042;-61
2021/05/08 09:36:25;;;;;;;11.12;4.55;;;;;;;;;;143743;599;46020;-61
2021/05/08 09:38:52;;;;;;;10.02;4.07;;;;;;;;;;143745;577;45040;-61
2021/05/08 09:41:19;;;;;;;11.70;3.87;;;;;;;;;;143742;681;46020;-62
2021/05/08 09:43:46;;;;;;;12.15;3.70;;;;;;;;;;143741;577;47020;-61
2021/05/08 09:46:33;;;;;;;6.20;3.75;;;;;;;;;;143745;607;45021;-62
2021/05/08 09:49:10;;;;;;;9.48;3.75;;;;;;;;;;143742;606;46020;-62
2021/05/08 09:51:37;;;;;;;12.63;3.90;;;;;;;;;;143738;582;46021;-61
2021/05/08 09:54:18;;;;;;;9.45;5.03;;;;;;;;;;143745;603;45020;-60
2021/05/08 09:56:46;;;;;;;8.88;4.15;;;;;;;;;;143746;616;45020;-60
2021/05/08 09:59:51;;;;;;;11.63;4.15;;;;;;;;;;143743;666;46022;-63
2021/05/08 10:02:18;;;;;;;9.10;3.95;;;;;;;;;;143742;585;46020;-61
2021/05/08 10:04:47;;;;;;;18.37;4.43;;;;;;;;;;143744;608;45034;-61
2021/05/08 10:07:19;;;;;;;10.68;3.78;;;;;;;;;;143744;584;45021;-61
2021/05/08 10:09:49;;;;;;;11.80;4.45;;;;;;;;;;143743;596;46022;-61
2021/05/08 10:12:18;;;;;;;9.55;4.57;;;;;;;;;;143741;614;46020;-60
2021/05/08 10:14:47;;;;;;;12.75;4.65;;;;;;;;;;143744;569;45033;-62
2021/05/08 10:17:15;;;;;;;12.65;4.53;;;;;;;;;;143745;588;46020;-61
2021/05/08 10:19:47;;;;;;;18.70;4.30;;;;;;;;;;143740;617;46022;-62
2021/05/08 10:22:15;;;;;;;7.40;4.07;;;;;;;;;;143739;599;46021;-61
2021/05/08 10:24:43;;;;;;;7.22;4.20;;;;;;;;;;143742;573;45020;-62
2021/05/08 10:27:11;;;;;;;10.50;4.68;;;;;;;;;;143743;602;45020;-62
2021/05/08 10:29:41;;;;;;;10.95;3.95;;;;;;;;;;143741;616;46023;-62
2021/05/08 10:32:13;;;;;;;10.27;4.22;;;;;;;;;;143738;612;46020;-62
2021/05/08 10:34:54;;;;;;;10.55;3.90;;;;;;;;;;143742;564;45020;-65
2021/05/08 10:37:22;;;;;;;9.18;4.03;;;;;;;;;;143743;614;45021;-64
2021/05/08 10:40:15;;;;;;;11.82;4.05;;;;;;;;;;143740;583;46020;-65
2021/05/08 10:42:47;;;;;;;7.47;3.50;;;;;;;;;;143738;584;46034;-63
2021/05/08 10:45:39;;;;;;;12.00;3.72;;;;;;;;;;143742;581;45021;-64
2021/05/08 10:48:07;;;;;;;15.10;4.05;;;;;;;;;;143741;570;46012;-64
2021/05/08 10:50:47;;;;;;;8.45;3.72;;;;;;;;;;143740;579;46021;-63
2021/05/08 10:53:18;;;;;;;11.20;3.92;;;;;;;;;;143740;594;46020;-63
2021/05/08 10:56:01;;;;;;;11.10;3.60;;;;;;;;;;143741;608;45020;-63
2021/05/08 10:58:32;;;;;;;7.53;3.78;;;;;;;;;;143743;565;45021;-61
2021/05/08 11:01:07;;;;;;;9.35;3.80;;;;;;;;;;143740;627;46020;-63
2021/05/08 11:04:03;;;;;;;9.32;3.83;;;;;;;;;;143740;619;46020;-63
2021/05/08 11:06:30;;;;;;;9.45;4.18;;;;;;;;;;143742;592;45022;-63
2021/05/08 11:08:57;;;;;;;7.90;3.60;;;;;;;;;;143743;565;45020;-63
2021/05/08 11:11:43;;;;;;;6.50;3.40;;;;;;;;;;143740;667;46020;-63
2021/05/08 11:14:10;;;;;;;9.88;3.83;;;;;;;;;;143740;626;46021;-64
2021/05/08 11:16:54;;;;;;;7.43;3.80;;;;;;;;;;143743;563;45020;-64
2021/05/08 11:19:25;;;;;;;6.03;3.53;;;;;;;;;;143742;569;46020;-63
2021/05/08 11:22:08;;;;;;;12.55;4.12;;;;;;;;;;143739;564;46021;-64
2021/05/08 11:24:38;;;;;;;5.30;3.58;;;;;;;;;;143741;564;46020;-63
2021/05/08 11:27:22;;;;;;;8.63;3.78;;;;;;;;;;143742;605;45911;-61
2021/05/08 11:29:49;;;;;;;7.25;3.50;;;;;;;;;;143742;564;46012;-63
2021/05/08 11:32:16;;;;;;;8.43;3.67;;;;;;;;;;143739;569;46022;-63
2021/05/08 11:34:44;;;;;;;9.55;3.92;;;;;;;;;;143738;575;46021;-63
2021/05/08 11:37:14;;;;;;;10.90;3.40;;;;;;;;;;143742;588;46021;-64
2021/05/08 11:39:45;;;;;;;12.55;3.65;;;;;;;;;;143739;578;46012;-63
2021/05/08 11:42:20;;;;;;;6.75;3.62;;;;;;;;;;143740;569;46022;-63
2021/05/08 11:45:00;;;;;;;6.60;3.37;;;;;;;;;;143738;586;46020;-63
2021/05/08 11:47:31;;;;;;;7.60;3.58;;;;;;;;;;143741;565;45020;-63
2021/05/08 11:50:14;;;;;;;9.73;3.50;;;;;;;;;;143742;574;46040;-64
2021/05/08 11:52:54;;;;;;;9.88;3.42;;;;;;;;;;143740;586;46021;-63
2021/05/08 11:55:23;;;;;;;7.07;3.75;;;;;;;;;;143740;623;46022;-63
2021/05/08 11:58:08;;;;;;;10.95;3.67;;;;;;;;;;143742;594;45019;-60
2021/05/08 12:00:36;;;;;;;7.75;3.55;;;;;;;;;;143742;586;46012;-62
2021/05/08 12:03:08;;;;;;;13.25;4.15;;;;;;;;;;143740;585;46020;-60
2021/05/08 12:05:39;;;;;;;8.27;3.33;;;;;;;;;;143739;569;46023;-62
2021/05/08 12:08:06;;;;;;;12.98;3.95;;;;;;;;;;143739;609;46010;-61
2021/05/08 12:10:36;;;;;;;4.57;3.17;;;;;;;;;;143744;567;45022;-63
2021/05/08 12:13:03;;;;;;;7.32;3.60;;;;;;;;;;143740;589;46019;-63
2021/05/08 12:15:32;;;;;;;11.00;3.20;;;;;;;;;;143740;564;46022;-63
2021/05/08 12:18:00;;;;;;;6.68;3.47;;;;;;;;;;143741;569;45036;-63
2021/05/08 12:20:31;;;;;;;10.15;3.87;;;;;;;;;;143744;602;45023;-63
2021/05/08 12:23:02;;;;;;;7.85;3.35;;;;;;;;;;143740;605;46018;-63
2021/05/08 12:25:29;;;;;;;8.55;3.60;;;;;;;;;;143739;585;46022;-63
2021/05/08 12:28:18;;;;;;;9.05;3.83;;;;;;;;;;143742;577;45019;-63
2021/05/08 12:30:50;;;;;;;7.12;3.17;;;;;;;;;;143744;584;45023;-63
2021/05/08 12:33:22;;;;;;;6.35;3.85;;;;;;;;;;143739;595;46018;-62
2021/05/08 12:35:50;;;;;;;11.40;3.92;;;;;;;;;;143739;570;46023;-62
2021/05/08 12:38:35;;;;;;;12.15;3.53;;;;;;;;;;143743;586;45018;-63
2021/05/08 12:41:02;;;;;;;6.80;3.30;;;;;;;;;;143743;562;45024;-63
2021/05/08 12:43:31;;;;;;;8.70;3.33;;;;;;;;;;143740;564;46019;-62
2021/05/08 12:46:05;;;;;;;6.20;3.60;;;;;;;;;;143740;588;46022;-63
2021/05/08 12:48:39;;;;;;;9.70;4.40;;;;;;;;;;143743;580;45034;-63
2021/05/08 12:51:36;;;;;;;11.25;4.10;;;;;;;;;;143741;573;46023;-63
2021/05/08 12:54:24;;;;;;;12.98;4.93;;;;;;;;;;143741;571;46022;-63
2021/05/08 12:56:54;;;;;;;8.73;4.25;;;;;;;;;;143739;572;46022;-62
2021/05/08 12:59:30;;;;;;;10.60;3.72;;;;;;;;;;143742;576;45019;-63
2021/05/08 13:02:15;;;;;;;13.98;4.18;;;;;;;;;;143744;566;45022;-63
2021/05/08 13:04:44;;;;;;;10.10;3.78;;;;;;;;;;143740;572;46027;-63
2021/05/08 13:07:25;;;;;;;7.45;3.37;;;;;;;;;;143741;670;45921;-64
2021/05/08 13:10:13;;;;;;;9.45;3.72;;;;;;;;;;143741;566;45018;-64
2021/05/08 13:12:40;;;;;;;12.68;3.97;;;;;;;;;;143743;618;45027;-64
2021/05/08 13:15:11;;;;;;;6.78;3.97;;;;;;;;;;143737;570;46021;-62
2021/05/08 13:17:38;;;;;;;14.02;4.45;;;;;;;;;;143739;564;46022;-63
2021/05/08 13:20:07;;;;;;;9.13;4.18;;;;;;;;;;143742;597;45032;-63
2021/05/08 13:22:37;;;;;;;10.18;4.87;;;;;;;;;;143743;660;45023;-63
2021/05/08 13:25:06;;;;;;;15.60;4.82;;;;;;;;;;143739;571;46026;-62
2021/05/08 13:27:33;;;;;;;13.65;4.47;;;;;;;;;;143739;591;46023;-61
2021/05/08 13:30:00;;;;;;;9.98;3.87;;;;;;;;;;143741;583;45018;-62
2021/05/08 13:32:27;;;;;;;10.88;3.97;;;;;;;;;;143741;647;45022;-62
2021/05/08 13:34:54;;;;;;;13.52;3.92;;;;;;;;;;143742;583;46019;-61
2021/05/08 13:37:21;;;;;;;10.15;3.70;;;;;;;;;;143739;569;46023;-62
2021/05/08 13:39:48;;;;;;;12.02;3.55;;;;;;;;;;143742;610;45028;-61
2021/05/08 13:42:15;;;;;;;14.15;4.45;;;;;;;;;;143743;598;45023;-62
2021/05/08 13:44:43;;;;;;;11.55;4.00;;;;;;;;;;143739;594;46021;-61
2021/05/08 13:47:21;;;;;;;7.68;3.42;;;;;;;;;;143740;569;46024;-62
2021/05/08 13:49:52;;;;;;;10.77;3.42;;;;;;;;;;143738;600;46909;-61
2021/05/08 13:52:21;;;;;;;16.75;4.72;;;;;;;;;;143743;564;45022;-61
2021/05/08 13:54:49;;;;;;;9.45;4.00;;;;;;;;;;143740;569;46020;-62
2021/05/08 13:57:17;;;;;;;10.27;4.47;;;;;;;;;;143741;605;46023;-62
2021/05/08 13:59:44;;;;;;;15.10;4.10;;;;;;;;;;143741;595;46010;-60
2021/05/08 14:02:12;;;;;;;8.40;4.00;;;;;;;;;;143741;599;45022;-62
2021/05/08 14:04:39;;;;;;;6.70;3.67;;;;;;;;;;143739;583;47019;-61
2021/05/08 14:07:06;;;;;;;10.60;4.03;;;;;;;;;;143741;597;46022;-61
2021/05/08 14:09:33;;;;;;;13.40;3.95;;;;;;;;;;143742;569;45018;-61
2021/05/08 14:12:01;;;;;;;13.18;4.40;;;;;;;;;;143742;595;46022;-62
2021/05/08 14:14:27;;;;;;;12.23;3.60;;;;;;;;;;143739;593;46020;-62
2021/05/08 14:16:55;;;;;;;9.95;4.20;;;;;;;;;;143741;564;46022;-61
2021/05/08 14:19:22;;;;;;;13.65;4.05;;;;;;;;;;143739;584;46012;-60
2021/05/08 14:21:50;;;;;;;10.70;4.20;;;;;;;;;;143741;574;46023;-61
2021/05/08 14:24:17;;;;;;;9.30;3.35;;;;;;;;;;143739;593;46018;-60
2021/05/08 14:26:45;;;;;;;11.00;3.72;;;;;;;;;;143739;579;46023;-61
2021/05/08 14:29:13;;;;;;;8.52;3.78;;;;;;;;;;143742;569;45018;-61
2021/05/08 14:31:41;;;;;;;5.45;3.20;;;;;;;;;;143744;602;45022;-59
2021/05/08 14:34:09;;;;;;;7.05;3.45;;;;;;;;;;143739;565;46021;-60
2021/05/08 14:36:36;;;;;;;9.35;3.62;;;;;;;;;;143739;586;46023;-61
2021/05/08 14:39:03;;;;;;;12.73;4.10;;;;;;;;;;143743;584;45018;-61
2021/05/08 14:41:30;;;;;;;6.57;3.75;;;;;;;;;;143743;576;45023;-61
2021/05/08 14:43:57;;;;;;;10.27;3.95;;;;;;;;;;143740;564;46018;-61
2021/05/08 14:46:24;;;;;;;9.48;4.07;;;;;;;;;;143739;592;46022;-61